X  Luk Metar data     EKYT Aalborg Airport
Temperatur
8°C Temperatur
6°C Dugpunkt
87% Fugtighed



Vind
4 M/S
8 MPT
13 KM/T
7 KNOB



180°
Syd
Nuværende forhold

Overkyet Overkyet
Tryk 1021.92 (hPa) - 30.18 (inHg)
Sigt 6.2 (mil) - 10 (km)
Lufthavn
Lufthavnskode EKYT

Lokation: Aalborg Airport
Afstand: 54 (km)

Metar:
EKYT 240220Z AUTO 18007KT 9999 OVC055/// 08/06 Q1022

Tid: 24-10-2021 04:20 CEST